sensor_id;sensor_type;location;lat;lon;timestamp;pressure;altitude;pressure_sealevel;temperature;humidity
59009;BME280;44794;42.652;23.318;2023-02-20T00:00:55;94837.50;;;10.02;62.95
59009;BME280;44794;42.652;23.318;2023-02-20T00:03:20;94841.22;;;9.98;63.26
59009;BME280;44794;42.652;23.318;2023-02-20T00:05:46;94847.59;;;9.93;63.55
59009;BME280;44794;42.652;23.318;2023-02-20T00:08:11;94848.88;;;9.87;63.82
59009;BME280;44794;42.652;23.318;2023-02-20T00:10:36;94840.16;;;9.88;64.03
59009;BME280;44794;42.652;23.318;2023-02-20T00:13:02;94834.41;;;9.83;64.51
59009;BME280;44794;42.652;23.318;2023-02-20T00:15:27;94832.25;;;9.77;65.10
59009;BME280;44794;42.652;23.318;2023-02-20T00:17:53;94826.72;;;9.69;65.75
59009;BME280;44794;42.652;23.318;2023-02-20T00:20:22;94830.59;;;9.64;66.24
59009;BME280;44794;42.652;23.318;2023-02-20T00:22:47;94832.22;;;9.65;66.77
59009;BME280;44794;42.652;23.318;2023-02-20T00:25:15;94829.31;;;9.69;66.89
59009;BME280;44794;42.652;23.318;2023-02-20T00:27:41;94828.81;;;9.65;67.27
59009;BME280;44794;42.652;23.318;2023-02-20T00:30:09;94829.00;;;9.62;67.46
59009;BME280;44794;42.652;23.318;2023-02-20T00:32:35;94828.28;;;9.60;67.85
59009;BME280;44794;42.652;23.318;2023-02-20T00:35:01;94817.00;;;9.61;67.98
59009;BME280;44794;42.652;23.318;2023-02-20T00:37:26;94827.44;;;9.59;68.14
59009;BME280;44794;42.652;23.318;2023-02-20T00:39:52;94814.41;;;9.61;68.19
59009;BME280;44794;42.652;23.318;2023-02-20T00:42:17;94827.84;;;9.53;68.39
59009;BME280;44794;42.652;23.318;2023-02-20T00:44:42;94823.38;;;9.43;68.52
59009;BME280;44794;42.652;23.318;2023-02-20T00:47:08;94815.81;;;9.40;68.68
59009;BME280;44794;42.652;23.318;2023-02-20T00:49:33;94825.34;;;9.39;68.59
59009;BME280;44794;42.652;23.318;2023-02-20T00:51:59;94828.56;;;9.43;68.40
59009;BME280;44794;42.652;23.318;2023-02-20T00:54:24;94838.59;;;9.35;68.66
59009;BME280;44794;42.652;23.318;2023-02-20T00:56:49;94849.25;;;9.30;68.91
59009;BME280;44794;42.652;23.318;2023-02-20T00:59:15;94842.97;;;9.34;68.75
59009;BME280;44794;42.652;23.318;2023-02-20T01:01:40;94841.59;;;9.29;68.83
59009;BME280;44794;42.652;23.318;2023-02-20T01:04:06;94844.41;;;9.26;68.88
59009;BME280;44794;42.652;23.318;2023-02-20T01:06:31;94859.84;;;9.27;68.58
59009;BME280;44794;42.652;23.318;2023-02-20T01:08:56;94872.78;;;9.27;68.69
59009;BME280;44794;42.652;23.318;2023-02-20T01:11:22;94877.22;;;9.25;69.18
59009;BME280;44794;42.652;23.318;2023-02-20T01:13:48;94880.69;;;9.26;69.32
59009;BME280;44794;42.652;23.318;2023-02-20T01:16:13;94880.22;;;9.19;69.40
59009;BME280;44794;42.652;23.318;2023-02-20T01:18:38;94870.88;;;9.17;69.76
59009;BME280;44794;42.652;23.318;2023-02-20T01:21:04;94861.75;;;9.11;70.07
59009;BME280;44794;42.652;23.318;2023-02-20T01:23:29;94870.94;;;9.03;70.91
59009;BME280;44794;42.652;23.318;2023-02-20T01:25:55;94871.34;;;8.97;71.57
59009;BME280;44794;42.652;23.318;2023-02-20T01:28:20;94872.03;;;8.99;71.82
59009;BME280;44794;42.652;23.318;2023-02-20T01:30:46;94882.03;;;9.05;72.09
59009;BME280;44794;42.652;23.318;2023-02-20T01:33:11;94881.25;;;9.17;71.90
59009;BME280;44794;42.652;23.318;2023-02-20T01:35:37;94882.06;;;9.17;71.56
59009;BME280;44794;42.652;23.318;2023-02-20T01:38:02;94897.31;;;9.22;71.58
59009;BME280;44794;42.652;23.318;2023-02-20T01:40:31;94892.88;;;9.24;71.46
59009;BME280;44794;42.652;23.318;2023-02-20T01:42:57;94890.53;;;9.33;71.40
59009;BME280;44794;42.652;23.318;2023-02-20T01:47:51;94901.34;;;9.40;71.04
59009;BME280;44794;42.652;23.318;2023-02-20T01:50:34;94902.69;;;9.45;71.24
59009;BME280;44794;42.652;23.318;2023-02-20T01:53:06;94901.66;;;9.48;71.36
59009;BME280;44794;42.652;23.318;2023-02-20T01:56:00;94904.66;;;9.42;71.78
59009;BME280;44794;42.652;23.318;2023-02-20T01:58:47;94893.56;;;9.40;72.20
59009;BME280;44794;42.652;23.318;2023-02-20T02:01:14;94914.88;;;9.31;73.16
59009;BME280;44794;42.652;23.318;2023-02-20T02:03:42;94920.47;;;9.25;73.58
59009;BME280;44794;42.652;23.318;2023-02-20T02:06:11;94921.28;;;9.25;73.56
59009;BME280;44794;42.652;23.318;2023-02-20T02:08:38;94918.28;;;9.19;74.06
59009;BME280;44794;42.652;23.318;2023-02-20T02:11:08;94906.91;;;9.07;74.79
59009;BME280;44794;42.652;23.318;2023-02-20T02:13:36;94918.59;;;9.00;73.88
59009;BME280;44794;42.652;23.318;2023-02-20T02:21:22;94917.97;;;8.83;73.02
59009;BME280;44794;42.652;23.318;2023-02-20T02:29:59;94915.31;;;8.71;73.52
59009;BME280;44794;42.652;23.318;2023-02-20T02:32:43;94924.66;;;8.59;73.20
59009;BME280;44794;42.652;23.318;2023-02-20T02:38:04;94934.25;;;8.43;73.22
59009;BME280;44794;42.652;23.318;2023-02-20T02:40:54;94939.75;;;8.39;73.83
59009;BME280;44794;42.652;23.318;2023-02-20T02:46:25;94937.59;;;8.31;73.10
59009;BME280;44794;42.652;23.318;2023-02-20T02:48:59;94934.19;;;8.31;72.87
59009;BME280;44794;42.652;23.318;2023-02-20T02:51:31;94927.78;;;8.22;73.16
59009;BME280;44794;42.652;23.318;2023-02-20T02:54:09;94936.84;;;8.29;72.58
59009;BME280;44794;42.652;23.318;2023-02-20T02:56:37;94925.66;;;8.29;72.63
59009;BME280;44794;42.652;23.318;2023-02-20T02:59:03;94937.41;;;8.21;72.96
59009;BME280;44794;42.652;23.318;2023-02-20T03:01:30;94930.72;;;8.17;73.19
59009;BME280;44794;42.652;23.318;2023-02-20T03:04:00;94919.00;;;8.11;73.60
59009;BME280;44794;42.652;23.318;2023-02-20T03:06:32;94928.31;;;8.14;73.43
59009;BME280;44794;42.652;23.318;2023-02-20T03:09:06;94917.13;;;8.13;73.21
59009;BME280;44794;42.652;23.318;2023-02-20T03:11:33;94928.38;;;8.12;73.22
59009;BME280;44794;42.652;23.318;2023-02-20T03:14:12;94923.22;;;8.12;73.11
59009;BME280;44794;42.652;23.318;2023-02-20T03:19:47;94947.59;;;8.08;73.31
59009;BME280;44794;42.652;23.318;2023-02-20T03:22:18;94947.59;;;8.08;73.08
59009;BME280;44794;42.652;23.318;2023-02-20T03:24:45;94959.72;;;8.08;73.07
59009;BME280;44794;42.652;23.318;2023-02-20T03:29:55;94961.91;;;8.00;73.28
59009;BME280;44794;42.652;23.318;2023-02-20T03:32:24;94976.84;;;7.95;73.43
59009;BME280;44794;42.652;23.318;2023-02-20T03:35:11;94987.53;;;7.89;73.76
59009;BME280;44794;42.652;23.318;2023-02-20T03:37:57;94998.47;;;7.94;73.80
59009;BME280;44794;42.652;23.318;2023-02-20T03:40:44;95007.88;;;7.95;73.65
59009;BME280;44794;42.652;23.318;2023-02-20T03:43:29;94990.22;;;7.87;73.78
59009;BME280;44794;42.652;23.318;2023-02-20T03:46:13;94979.88;;;7.87;73.96
59009;BME280;44794;42.652;23.318;2023-02-20T03:48:49;94985.88;;;7.88;73.43
59009;BME280;44794;42.652;23.318;2023-02-20T03:51:17;94989.00;;;7.79;73.31
59009;BME280;44794;42.652;23.318;2023-02-20T03:53:44;94975.41;;;7.75;73.27
59009;BME280;44794;42.652;23.318;2023-02-20T03:56:17;94991.75;;;7.76;73.32
59009;BME280;44794;42.652;23.318;2023-02-20T03:58:49;94973.25;;;7.68;73.76
59009;BME280;44794;42.652;23.318;2023-02-20T04:01:20;95007.69;;;7.68;73.25
59009;BME280;44794;42.652;23.318;2023-02-20T04:03:48;95020.53;;;7.70;73.39
59009;BME280;44794;42.652;23.318;2023-02-20T04:06:16;95014.44;;;7.71;72.80
59009;BME280;44794;42.652;23.318;2023-02-20T04:08:52;95010.75;;;7.75;72.40
59009;BME280;44794;42.652;23.318;2023-02-20T04:13:57;95009.78;;;7.91;71.32
59009;BME280;44794;42.652;23.318;2023-02-20T04:16:24;95006.41;;;7.91;71.08
59009;BME280;44794;42.652;23.318;2023-02-20T04:18:50;95003.72;;;7.92;70.62
59009;BME280;44794;42.652;23.318;2023-02-20T04:22:08;94997.91;;;8.03;70.22
59009;BME280;44794;42.652;23.318;2023-02-20T04:24:10;95004.34;;;8.11;69.71
59009;BME280;44794;42.652;23.318;2023-02-20T04:26:37;94994.72;;;8.13;69.31
59009;BME280;44794;42.652;23.318;2023-02-20T04:29:04;95015.38;;;8.15;69.53
59009;BME280;44794;42.652;23.318;2023-02-20T04:31:30;95030.22;;;8.11;70.20
59009;BME280;44794;42.652;23.318;2023-02-20T04:33:55;95025.19;;;8.08;70.76
59009;BME280;44794;42.652;23.318;2023-02-20T04:36:21;95018.63;;;8.03;71.12
59009;BME280;44794;42.652;23.318;2023-02-20T04:38:47;95022.78;;;8.05;71.49
59009;BME280;44794;42.652;23.318;2023-02-20T04:41:12;95010.75;;;7.90;71.04
59009;BME280;44794;42.652;23.318;2023-02-20T04:43:38;95006.75;;;7.85;70.90
59009;BME280;44794;42.652;23.318;2023-02-20T04:46:03;94994.88;;;7.96;71.28
59009;BME280;44794;42.652;23.318;2023-02-20T04:48:28;95008.97;;;7.91;70.42
59009;BME280;44794;42.652;23.318;2023-02-20T04:50:54;95022.41;;;7.82;69.52
59009;BME280;44794;42.652;23.318;2023-02-20T04:53:19;95006.44;;;7.75;69.14
59009;BME280;44794;42.652;23.318;2023-02-20T04:55:45;95008.25;;;7.73;68.79
59009;BME280;44794;42.652;23.318;2023-02-20T04:58:10;95012.94;;;7.67;68.02
59009;BME280;44794;42.652;23.318;2023-02-20T05:00:36;95033.59;;;7.67;67.84
59009;BME280;44794;42.652;23.318;2023-02-20T05:03:01;95038.78;;;7.67;67.51
59009;BME280;44794;42.652;23.318;2023-02-20T05:05:28;95045.97;;;7.62;67.31
59009;BME280;44794;42.652;23.318;2023-02-20T05:07:58;95048.41;;;7.65;67.09
59009;BME280;44794;42.652;23.318;2023-02-20T05:10:25;95049.00;;;7.54;66.20
59009;BME280;44794;42.652;23.318;2023-02-20T05:12:50;95062.31;;;7.47;66.38
59009;BME280;44794;42.652;23.318;2023-02-20T05:15:17;95060.72;;;7.44;66.62
59009;BME280;44794;42.652;23.318;2023-02-20T05:17:43;95072.22;;;7.39;66.43
59009;BME280;44794;42.652;23.318;2023-02-20T05:20:09;95061.22;;;7.36;65.85
59009;BME280;44794;42.652;23.318;2023-02-20T05:22:34;95054.66;;;7.30;66.14
59009;BME280;44794;42.652;23.318;2023-02-20T05:25:00;95062.66;;;7.26;66.28
59009;BME280;44794;42.652;23.318;2023-02-20T05:27:27;95076.22;;;7.29;66.52
59009;BME280;44794;42.652;23.318;2023-02-20T05:29:54;95075.56;;;7.26;66.78
59009;BME280;44794;42.652;23.318;2023-02-20T05:32:22;95069.41;;;7.28;66.79
59009;BME280;44794;42.652;23.318;2023-02-20T05:34:48;95077.47;;;7.22;67.31
59009;BME280;44794;42.652;23.318;2023-02-20T05:37:17;95076.31;;;7.28;67.52
59009;BME280;44794;42.652;23.318;2023-02-20T05:39:42;95087.00;;;7.37;67.74
59009;BME280;44794;42.652;23.318;2023-02-20T05:42:09;95092.16;;;7.37;67.92
59009;BME280;44794;42.652;23.318;2023-02-20T05:44:35;95097.41;;;7.66;67.27
59009;BME280;44794;42.652;23.318;2023-02-20T05:47:01;95096.28;;;8.17;65.44
59009;BME280;44794;42.652;23.318;2023-02-20T05:49:27;95093.38;;;8.52;63.85
59009;BME280;44794;42.652;23.318;2023-02-20T05:51:55;95097.56;;;8.68;62.97
59009;BME280;44794;42.652;23.318;2023-02-20T05:54:21;95085.00;;;8.76;62.62
59009;BME280;44794;42.652;23.318;2023-02-20T05:56:47;95082.03;;;8.68;62.75
59009;BME280;44794;42.652;23.318;2023-02-20T05:59:16;95080.31;;;8.53;63.01
59009;BME280;44794;42.652;23.318;2023-02-20T06:01:42;95091.75;;;8.35;63.21
59009;BME280;44794;42.652;23.318;2023-02-20T06:04:08;95084.78;;;8.22;63.62
59009;BME280;44794;42.652;23.318;2023-02-20T06:06:35;95082.75;;;8.12;64.12
59009;BME280;44794;42.652;23.318;2023-02-20T06:09:02;95099.28;;;8.09;62.94
59009;BME280;44794;42.652;23.318;2023-02-20T06:11:28;95093.53;;;8.20;60.84
59009;BME280;44794;42.652;23.318;2023-02-20T06:13:54;95110.19;;;8.29;59.07
59009;BME280;44794;42.652;23.318;2023-02-20T06:16:22;95114.03;;;8.38;58.96
59009;BME280;44794;42.652;23.318;2023-02-20T06:18:48;95094.63;;;8.45;58.67
59009;BME280;44794;42.652;23.318;2023-02-20T06:21:13;95110.06;;;8.46;59.10
59009;BME280;44794;42.652;23.318;2023-02-20T06:23:41;95099.56;;;8.49;59.52
59009;BME280;44794;42.652;23.318;2023-02-20T06:26:07;95096.81;;;8.66;59.40
59009;BME280;44794;42.652;23.318;2023-02-20T06:28:33;95092.75;;;8.76;58.56
59009;BME280;44794;42.652;23.318;2023-02-20T06:30:59;95091.09;;;8.75;58.25
59009;BME280;44794;42.652;23.318;2023-02-20T06:33:24;95110.25;;;8.87;56.22
59009;BME280;44794;42.652;23.318;2023-02-20T06:35:50;95118.75;;;8.89;57.53
59009;BME280;44794;42.652;23.318;2023-02-20T06:38:15;95119.78;;;9.00;57.65
59009;BME280;44794;42.652;23.318;2023-02-20T06:40:41;95135.91;;;9.05;56.91
59009;BME280;44794;42.652;23.318;2023-02-20T06:43:06;95130.06;;;9.01;57.95
59009;BME280;44794;42.652;23.318;2023-02-20T06:45:32;95129.06;;;9.04;56.79
59009;BME280;44794;42.652;23.318;2023-02-20T06:47:57;95123.88;;;9.04;57.20
59009;BME280;44794;42.652;23.318;2023-02-20T06:50:22;95128.78;;;8.95;57.18
59009;BME280;44794;42.652;23.318;2023-02-20T06:52:48;95133.88;;;9.10;56.78
59009;BME280;44794;42.652;23.318;2023-02-20T06:55:13;95137.84;;;9.01;56.88
59009;BME280;44794;42.652;23.318;2023-02-20T06:57:39;95138.00;;;8.85;57.43
59009;BME280;44794;42.652;23.318;2023-02-20T07:00:05;95133.19;;;8.79;57.74
59009;BME280;44794;42.652;23.318;2023-02-20T07:02:30;95145.28;;;8.78;57.61
59009;BME280;44794;42.652;23.318;2023-02-20T07:04:56;95152.88;;;8.81;56.98
59009;BME280;44794;42.652;23.318;2023-02-20T07:07:21;95136.44;;;8.82;57.09
59009;BME280;44794;42.652;23.318;2023-02-20T07:09:46;95140.72;;;8.97;57.22
59009;BME280;44794;42.652;23.318;2023-02-20T07:12:12;95136.25;;;8.99;55.66
59009;BME280;44794;42.652;23.318;2023-02-20T07:14:37;95148.66;;;8.94;55.92
59009;BME280;44794;42.652;23.318;2023-02-20T07:17:03;95140.25;;;9.04;55.40
59009;BME280;44794;42.652;23.318;2023-02-20T07:19:28;95139.59;;;9.15;54.69
59009;BME280;44794;42.652;23.318;2023-02-20T07:21:54;95157.38;;;9.35;53.64
59009;BME280;44794;42.652;23.318;2023-02-20T07:24:19;95152.41;;;9.46;52.11
59009;BME280;44794;42.652;23.318;2023-02-20T07:26:46;95169.91;;;9.42;51.52
59009;BME280;44794;42.652;23.318;2023-02-20T07:29:12;95143.31;;;9.25;50.76
59009;BME280;44794;42.652;23.318;2023-02-20T07:31:38;95139.59;;;9.29;50.98
59009;BME280;44794;42.652;23.318;2023-02-20T07:34:03;95168.78;;;9.32;50.11
59009;BME280;44794;42.652;23.318;2023-02-20T07:36:29;95161.25;;;9.28;49.67
59009;BME280;44794;42.652;23.318;2023-02-20T07:38:56;95176.53;;;9.32;49.89
59009;BME280;44794;42.652;23.318;2023-02-20T07:41:23;95159.97;;;9.21;49.74
59009;BME280;44794;42.652;23.318;2023-02-20T07:43:49;95160.53;;;9.26;49.25
59009;BME280;44794;42.652;23.318;2023-02-20T07:46:15;95169.25;;;9.25;49.61
59009;BME280;44794;42.652;23.318;2023-02-20T07:48:40;95177.09;;;9.23;49.61
59009;BME280;44794;42.652;23.318;2023-02-20T07:51:06;95183.50;;;9.18;49.81
59009;BME280;44794;42.652;23.318;2023-02-20T07:53:31;95186.56;;;8.95;48.68
59009;BME280;44794;42.652;23.318;2023-02-20T07:55:57;95192.72;;;9.08;49.14
59009;BME280;44794;42.652;23.318;2023-02-20T07:58:22;95182.25;;;9.09;48.67
59009;BME280;44794;42.652;23.318;2023-02-20T08:00:49;95180.47;;;8.96;48.21
59009;BME280;44794;42.652;23.318;2023-02-20T08:03:18;95204.81;;;8.94;48.21
59009;BME280;44794;42.652;23.318;2023-02-20T08:05:45;95194.00;;;9.01;48.54
59009;BME280;44794;42.652;23.318;2023-02-20T08:08:11;95192.72;;;9.08;48.80
59009;BME280;44794;42.652;23.318;2023-02-20T08:10:37;95181.53;;;9.21;48.06
59009;BME280;44794;42.652;23.318;2023-02-20T08:13:05;95173.31;;;9.29;47.51
59009;BME280;44794;42.652;23.318;2023-02-20T08:15:31;95182.56;;;9.33;47.08
59009;BME280;44794;42.652;23.318;2023-02-20T08:17:57;95198.41;;;9.28;46.99
59009;BME280;44794;42.652;23.318;2023-02-20T08:20:22;95185.63;;;9.39;47.48
59009;BME280;44794;42.652;23.318;2023-02-20T08:22:49;95203.75;;;9.39;47.40
59009;BME280;44794;42.652;23.318;2023-02-20T08:25:15;95201.38;;;9.36;47.59
59009;BME280;44794;42.652;23.318;2023-02-20T08:27:46;95208.19;;;9.23;47.57
59009;BME280;44794;42.652;23.318;2023-02-20T08:30:15;95190.50;;;9.16;47.46
59009;BME280;44794;42.652;23.318;2023-02-20T08:32:42;95200.50;;;9.22;47.72
59009;BME280;44794;42.652;23.318;2023-02-20T08:35:07;95211.34;;;9.28;47.98
59009;BME280;44794;42.652;23.318;2023-02-20T08:37:33;95200.88;;;9.30;48.33
59009;BME280;44794;42.652;23.318;2023-02-20T08:39:58;95192.38;;;9.42;48.41
59009;BME280;44794;42.652;23.318;2023-02-20T08:42:24;95191.44;;;9.29;47.33
59009;BME280;44794;42.652;23.318;2023-02-20T08:44:51;95193.28;;;9.27;48.07
59009;BME280;44794;42.652;23.318;2023-02-20T08:47:20;95195.19;;;9.53;47.20
59009;BME280;44794;42.652;23.318;2023-02-20T08:49:46;95205.81;;;9.62;46.97
59009;BME280;44794;42.652;23.318;2023-02-20T08:52:12;95213.22;;;9.54;46.54
59009;BME280;44794;42.652;23.318;2023-02-20T08:54:38;95210.34;;;9.59;47.23
59009;BME280;44794;42.652;23.318;2023-02-20T08:57:03;95202.47;;;9.60;46.75
59009;BME280;44794;42.652;23.318;2023-02-20T08:59:32;95192.66;;;9.51;46.56
59009;BME280;44794;42.652;23.318;2023-02-20T09:01:58;95215.16;;;9.65;46.35
59009;BME280;44794;42.652;23.318;2023-02-20T09:04:23;95200.44;;;9.65;45.88
59009;BME280;44794;42.652;23.318;2023-02-20T09:06:49;95222.13;;;9.64;46.23
59009;BME280;44794;42.652;23.318;2023-02-20T09:09:14;95204.63;;;9.68;46.50
59009;BME280;44794;42.652;23.318;2023-02-20T09:11:40;95193.31;;;9.55;46.47
59009;BME280;44794;42.652;23.318;2023-02-20T09:14:06;95186.75;;;9.63;46.57
59009;BME280;44794;42.652;23.318;2023-02-20T09:16:33;95196.47;;;9.60;46.37
59009;BME280;44794;42.652;23.318;2023-02-20T09:18:58;95172.47;;;9.70;46.71
59009;BME280;44794;42.652;23.318;2023-02-20T09:21:25;95179.22;;;9.86;46.33
59009;BME280;44794;42.652;23.318;2023-02-20T09:23:52;95196.09;;;9.66;46.65
59009;BME280;44794;42.652;23.318;2023-02-20T09:26:18;95179.63;;;9.53;46.99
59009;BME280;44794;42.652;23.318;2023-02-20T09:28:43;95175.53;;;9.63;48.06
59009;BME280;44794;42.652;23.318;2023-02-20T09:31:09;95172.38;;;9.58;47.37
59009;BME280;44794;42.652;23.318;2023-02-20T09:33:35;95192.22;;;9.72;47.46
59009;BME280;44794;42.652;23.318;2023-02-20T09:36:00;95180.53;;;9.79;47.56
59009;BME280;44794;42.652;23.318;2023-02-20T09:38:25;95146.56;;;9.96;47.38
59009;BME280;44794;42.652;23.318;2023-02-20T09:40:57;95193.66;;;10.04;47.49
59009;BME280;44794;42.652;23.318;2023-02-20T09:43:38;95193.28;;;9.96;47.26
59009;BME280;44794;42.652;23.318;2023-02-20T09:46:21;95158.19;;;9.91;46.82
59009;BME280;44794;42.652;23.318;2023-02-20T09:51:17;95191.31;;;10.28;46.37
59009;BME280;44794;42.652;23.318;2023-02-20T09:54:05;95189.03;;;10.23;46.24
59009;BME280;44794;42.652;23.318;2023-02-20T09:56:44;95195.09;;;10.36;46.17
59009;BME280;44794;42.652;23.318;2023-02-20T10:04:49;95218.97;;;10.01;44.25
59009;BME280;44794;42.652;23.318;2023-02-20T10:07:36;95213.31;;;9.94;44.17
59009;BME280;44794;42.652;23.318;2023-02-20T10:10:23;95178.31;;;9.87;44.00
59009;BME280;44794;42.652;23.318;2023-02-20T10:13:02;95195.72;;;9.99;43.43
59009;BME280;44794;42.652;23.318;2023-02-20T10:15:43;95200.91;;;9.99;43.43
59009;BME280;44794;42.652;23.318;2023-02-20T10:21:01;95183.94;;;10.08;42.85
59009;BME280;44794;42.652;23.318;2023-02-20T10:23:42;95183.19;;;10.20;42.54
59009;BME280;44794;42.652;23.318;2023-02-20T10:26:16;95187.47;;;10.33;42.41
59009;BME280;44794;42.652;23.318;2023-02-20T10:28:49;95180.13;;;10.13;41.37
59009;BME280;44794;42.652;23.318;2023-02-20T10:33:53;95174.28;;;10.10;41.12
59009;BME280;44794;42.652;23.318;2023-02-20T10:36:37;95151.56;;;10.13;41.26
59009;BME280;44794;42.652;23.318;2023-02-20T10:39:11;95174.16;;;10.25;40.95
59009;BME280;44794;42.652;23.318;2023-02-20T10:41:51;95172.66;;;10.35;40.57
59009;BME280;44794;42.652;23.318;2023-02-20T10:50:10;95179.28;;;10.27;40.37
59009;BME280;44794;42.652;23.318;2023-02-20T10:52:44;95160.84;;;10.44;40.65
59009;BME280;44794;42.652;23.318;2023-02-20T10:55:19;95173.38;;;10.63;40.70
59009;BME280;44794;42.652;23.318;2023-02-20T11:00:56;95151.78;;;10.63;41.10
59009;BME280;44794;42.652;23.318;2023-02-20T11:06:00;95140.78;;;10.72;41.59
59009;BME280;44794;42.652;23.318;2023-02-20T11:08:26;95135.59;;;10.84;41.62
59009;BME280;44794;42.652;23.318;2023-02-20T11:10:55;95125.03;;;11.00;41.43
59009;BME280;44794;42.652;23.318;2023-02-20T11:13:23;95107.25;;;11.19;41.27
59009;BME280;44794;42.652;23.318;2023-02-20T11:15:54;95109.66;;;11.22;41.37
59009;BME280;44794;42.652;23.318;2023-02-20T11:18:32;95122.22;;;11.03;40.64
59009;BME280;44794;42.652;23.318;2023-02-20T11:20:59;95111.09;;;11.01;41.43
59009;BME280;44794;42.652;23.318;2023-02-20T11:23:40;95086.34;;;11.20;41.47
59009;BME280;44794;42.652;23.318;2023-02-20T11:29:12;95092.78;;;11.39;40.91
59009;BME280;44794;42.652;23.318;2023-02-20T11:31:42;95117.56;;;11.08;41.14
59009;BME280;44794;42.652;23.318;2023-02-20T11:34:14;95106.53;;;11.17;41.47
59009;BME280;44794;42.652;23.318;2023-02-20T11:36:53;95092.47;;;11.31;41.54
59009;BME280;44794;42.652;23.318;2023-02-20T11:39:46;95100.06;;;11.22;41.53
59009;BME280;44794;42.652;23.318;2023-02-20T11:42:17;95108.81;;;11.09;41.91
59009;BME280;44794;42.652;23.318;2023-02-20T11:44:44;95120.06;;;11.22;42.01
59009;BME280;44794;42.652;23.318;2023-02-20T11:47:20;95118.91;;;11.25;41.25
59009;BME280;44794;42.652;23.318;2023-02-20T11:49:46;95125.56;;;11.17;41.20
59009;BME280;44794;42.652;23.318;2023-02-20T11:52:20;95122.75;;;11.20;41.13
59009;BME280;44794;42.652;23.318;2023-02-20T11:54:47;95109.56;;;11.35;41.47
59009;BME280;44794;42.652;23.318;2023-02-20T11:57:34;95136.91;;;11.28;41.37
59009;BME280;44794;42.652;23.318;2023-02-20T12:00:16;95124.31;;;11.35;40.63
59009;BME280;44794;42.652;23.318;2023-02-20T12:03:13;95113.78;;;11.36;40.85
59009;BME280;44794;42.652;23.318;2023-02-20T12:05:46;95105.91;;;11.38;40.76
59009;BME280;44794;42.652;23.318;2023-02-20T12:08:31;95102.97;;;11.55;40.47
59009;BME280;44794;42.652;23.318;2023-02-20T12:11:01;95113.50;;;11.53;40.34
59009;BME280;44794;42.652;23.318;2023-02-20T12:13:33;95106.53;;;11.54;39.84
59009;BME280;44794;42.652;23.318;2023-02-20T12:21:51;95124.53;;;11.57;39.62
59009;BME280;44794;42.652;23.318;2023-02-20T12:33:32;95118.72;;;11.53;40.08
59009;BME280;44794;42.652;23.318;2023-02-20T12:36:14;95120.56;;;11.51;40.12
59009;BME280;44794;42.652;23.318;2023-02-20T12:38:46;95113.81;;;11.61;40.00
59009;BME280;44794;42.652;23.318;2023-02-20T12:55:08;95097.56;;;11.45;39.91
59009;BME280;44794;42.652;23.318;2023-02-20T13:00:34;95098.38;;;11.71;39.93
59009;BME280;44794;42.652;23.318;2023-02-20T13:03:18;95085.22;;;11.85;40.16
59009;BME280;44794;42.652;23.318;2023-02-20T13:05:47;95100.13;;;11.83;40.06
59009;BME280;44794;42.652;23.318;2023-02-20T13:13:25;95110.03;;;11.78;40.66
59009;BME280;44794;42.652;23.318;2023-02-20T13:16:07;95128.66;;;11.84;40.67
59009;BME280;44794;42.652;23.318;2023-02-20T13:18:55;95114.28;;;11.91;39.97
59009;BME280;44794;42.652;23.318;2023-02-20T13:21:27;95118.44;;;11.81;40.35
59009;BME280;44794;42.652;23.318;2023-02-20T13:26:52;95106.66;;;11.88;39.32
59009;BME280;44794;42.652;23.318;2023-02-20T13:29:26;95098.25;;;11.72;39.45
59009;BME280;44794;42.652;23.318;2023-02-20T13:31:57;95111.84;;;11.52;39.83
59009;BME280;44794;42.652;23.318;2023-02-20T13:34:32;95112.75;;;11.51;40.77
59009;BME280;44794;42.652;23.318;2023-02-20T13:36:58;95113.59;;;11.39;41.60
59009;BME280;44794;42.652;23.318;2023-02-20T13:57:31;95119.75;;;11.14;42.21
59009;BME280;44794;42.652;23.318;2023-02-20T13:59:59;95113.06;;;11.10;42.59
59009;BME280;44794;42.652;23.318;2023-02-20T14:02:25;95120.53;;;11.02;42.91
59009;BME280;44794;42.652;23.318;2023-02-20T14:05:00;95125.88;;;11.13;43.09
59009;BME280;44794;42.652;23.318;2023-02-20T14:07:33;95120.75;;;11.23;42.84
59009;BME280;44794;42.652;23.318;2023-02-20T14:10:06;95121.59;;;11.36;42.59
59009;BME280;44794;42.652;23.318;2023-02-20T14:12:38;95127.72;;;11.48;42.28
59009;BME280;44794;42.652;23.318;2023-02-20T14:15:04;95115.56;;;11.61;42.10
59009;BME280;44794;42.652;23.318;2023-02-20T14:17:30;95122.63;;;11.71;41.77
59009;BME280;44794;42.652;23.318;2023-02-20T14:19:59;95132.28;;;11.82;41.76
59009;BME280;44794;42.652;23.318;2023-02-20T14:22:31;95135.78;;;12.05;41.83
59009;BME280;44794;42.652;23.318;2023-02-20T14:25:18;95132.25;;;11.94;41.76
59009;BME280;44794;42.652;23.318;2023-02-20T14:27:44;95132.75;;;11.63;42.24
59009;BME280;44794;42.652;23.318;2023-02-20T14:32:36;95139.38;;;11.18;43.34
59009;BME280;44794;42.652;23.318;2023-02-20T14:38:18;95149.03;;;10.91;44.45
59009;BME280;44794;42.652;23.318;2023-02-20T14:40:47;95143.38;;;10.72;44.69
59009;BME280;44794;42.652;23.318;2023-02-20T14:43:18;95143.78;;;10.66;45.10
59009;BME280;44794;42.652;23.318;2023-02-20T14:45:46;95147.84;;;10.70;45.44
59009;BME280;44794;42.652;23.318;2023-02-20T14:48:28;95159.28;;;10.67;45.19
59009;BME280;44794;42.652;23.318;2023-02-20T14:51:21;95146.22;;;10.81;44.49
59009;BME280;44794;42.652;23.318;2023-02-20T14:53:57;95157.00;;;10.88;44.35
59009;BME280;44794;42.652;23.318;2023-02-20T14:56:23;95167.41;;;10.88;44.29
59009;BME280;44794;42.652;23.318;2023-02-20T14:58:48;95162.63;;;10.82;44.72
59009;BME280;44794;42.652;23.318;2023-02-20T15:01:29;95175.13;;;10.89;44.80
59009;BME280;44794;42.652;23.318;2023-02-20T15:04:05;95172.22;;;10.94;44.59
59009;BME280;44794;42.652;23.318;2023-02-20T15:06:36;95162.94;;;10.90;44.77
59009;BME280;44794;42.652;23.318;2023-02-20T15:09:03;95172.41;;;10.91;44.71